KAND/AND METAR and TAF weather

Enter ICAO airport designator
Station Type Date Time Source
KAND METAR 2019/04/21 21:56 UTC NOAA

KAND 212156Z AUTO 10SM CLR 20/06 A3005 RMK AO2 SLP173 T02000061


Station Type Date Time Source
KAND Decoded METAR 2019/04/21 21:56 UTC NOAA

ANDERSON COUNTY AIRPORT, SC, United States (KAND) 34-30N 82-43W 239M
Apr 21, 2019 - 05:56 PM EDT / 2019.04.21 2156 UTC
Visibility: 10 mile(s):0
Sky conditions: clear
Temperature: 68.0 F (20.0 C)
Dew Point: 43.0 F (6.1 C)
Relative Humidity: 40%
Pressure (altimeter): 30.05 in. Hg (1017 hPa)
ob: KAND 212156Z AUTO 10SM CLR 20/06 A3005 RMK AO2 SLP173 T02000061
cycle: 22

Station Type Date Time Source
KAND TAF 2019/04/21 18:36 UTC NOAA

TAF KAND 211734Z 2118/2218 29006KT P6SM SCT045
FM212300 VRB04KT P6SM FEW250
FM221600 15003KT P6SM SKC

Example: see airport list